Terminal Aerodrome Forecast
Issued by NWS Cleveland, OH

Home | Current Version | Previous Version | Text Only | Print | Product List | Glossary On
Versions: 1 2 3 4 5 6 7 8 9 10 11 12 13 14 15 16
238
FTUS41 KCLE 292327
TAFYNG
TAF
KYNG 292327Z 3000/3024 18005KT P6SM SCT120
     FM300300 20005KT P6SM VCSH SCT060 BKN120
     FM300600 20005KT 6SM BR SCT120
     FM301400 28008KT P6SM BKN030
     FM301600 28010KT P6SM BKN040=

USA.gov is the U.S. government's official web portal to all federal, state and local government web resources and services.